Scholes International At Galveston Airport Galveston US
ICAO: KGLS
IATA: GLS
Category: Medium
Scheduled Services: No

Elevation: 6 ft
TransAlt. 18000 ft.

Airport Communications:
HOUSTON APP/DEP:134.45
ASOS:119.275
CLNC DEL:135.35
CTAF:120.575
GND:118.625
MONTGOMERY CO RDO:122.15
TWR:120.575
UNICOM:123.05

KGLS Zoom In..

If you have problems with the map follow the link
https://www.worldairports.se/pages/airport.php?
ICAO=KGLS

Runways:

(A) RW 14 length 6000 ft width 150 ft
ILS 111.70 / hdg 138

(B) RW 18 length 6001 ft width 150 ft
---- / hdg 179

(C) RW 32 length 6000 ft width 150 ft
---- / hdg 318

(D) RW 36 length 6001 ft width 150 ft
---- / hdg 359

Location; KGLS
Day. 12 / Time. 22.52 Zulu
* Altimeter: 30.14
* Temperature: 17° c. 62.6°f.
* Wind from: 020° Speed 06 kn.
Dewpoint: 11° c.
Visibility: 10 Statute Miles.
Clouds: Overcast 5000 ft.

KGLS 122252Z 02006KT 10SM OVC050 17/11 A3014 RMK AO2 SLP206 T01670111


Wind From 020°
Speed 06 kn.

 
 
jpsmedia worldairports.se 2019   terms of use